Time;durP1;ratioP1;P1;durP2;ratioP2;P2;SDS_P1;SDS_P2;PMS_P1;PMS_P2;Temp;Humidity;BMP_temperature;BMP_pressure;BME280_temperature;BME280_humidity;BME280_pressure;Samples;Min_cycle;Max_cycle;Signal;HPM_P1;HPM_P2
2021/04/04 00:00:18;;;;;;;13.75;2.58;;;;;;;-0.84;100.00;101371.03;4975730;28;20060;-83
2021/04/04 00:03:22;;;;;;;8.43;3.58;;;;;;;-0.89;100.00;101365.09;4984732;28;20054;-81
2021/04/04 00:06:26;;;;;;;2.72;2.63;;;;;;;-0.93;100.00;101366.94;4974734;28;20065;-84
2021/04/04 00:09:29;;;;;;;3.03;2.88;;;;;;;-0.99;100.00;101365.66;4977493;28;20057;-84
2021/04/04 00:12:34;;;;;;;3.80;2.63;;;;;;;-1.02;100.00;101367.16;4975759;28;20061;-83
2021/04/04 00:15:40;;;;;;;3.45;3.22;;;;;;;-1.04;100.00;101364.00;4986106;28;20743;-83
2021/04/04 00:18:44;;;;;;;10.38;3.58;;;;;;;-1.05;100.00;101364.38;4975533;28;20075;-83
2021/04/04 00:21:47;;;;;;;9.57;3.13;;;;;;;-1.08;100.00;101365.88;4974297;28;20053;-83
2021/04/04 00:24:51;;;;;;;22.67;3.90;;;;;;;-1.13;100.00;101359.91;4975614;28;20056;-84
2021/04/04 00:27:54;;;;;;;2.85;2.75;;;;;;;-1.19;100.00;101350.44;4975008;28;20058;-82
2021/04/04 00:30:58;;;;;;;6.53;4.28;;;;;;;-1.20;100.00;101354.31;4983536;28;20057;-83
2021/04/04 00:34:03;;;;;;;3.90;2.75;;;;;;;-1.25;100.00;101352.66;4994587;28;20711;-83
2021/04/04 00:37:06;;;;;;;6.45;3.20;;;;;;;-1.28;100.00;101347.13;4993375;28;20079;-82
2021/04/04 00:40:11;;;;;;;2.15;2.15;;;;;;;-1.30;100.00;101349.41;4997059;28;20064;-83
2021/04/04 00:43:15;;;;;;;2.58;2.47;;;;;;;-1.30;100.00;101346.69;4995327;28;20356;-83
2021/04/04 00:46:18;;;;;;;3.88;3.25;;;;;;;-1.33;100.00;101350.13;4996884;28;20084;-83
2021/04/04 00:49:22;;;;;;;11.25;3.58;;;;;;;-1.36;100.00;101356.28;4997985;28;20072;-85
2021/04/04 00:52:26;;;;;;;3.65;3.45;;;;;;;-1.40;100.00;101333.56;4993460;28;20170;-84
2021/04/04 00:55:33;;;;;;;3.05;2.83;;;;;;;-1.41;100.00;101343.72;4999739;28;20680;-84
2021/04/04 00:58:38;;;;;;;3.10;2.80;;;;;;;-1.45;100.00;101351.03;4996820;28;20056;-83
2021/04/04 01:01:42;;;;;;;11.88;3.00;;;;;;;-1.45;100.00;101347.53;4997609;28;20064;-84
2021/04/04 01:04:49;;;;;;;8.40;3.15;;;;;;;-1.49;100.00;101341.22;4998957;28;20057;-85
2021/04/04 01:07:56;;;;;;;4.70;3.90;;;;;;;-1.54;100.00;101332.13;5001664;28;21064;-83
2021/04/04 01:11:00;;;;;;;4.05;3.08;;;;;;;-1.57;100.00;101321.94;5002110;28;20061;-84
2021/04/04 01:14:23;;;;;;;3.42;3.13;;;;;;;-1.61;100.00;101323.00;5000855;28;20084;-83
2021/04/04 01:17:28;;;;;;;3.05;2.95;;;;;;;-1.63;100.00;101323.38;5001455;28;21038;-85
2021/04/04 01:20:42;;;;;;;4.75;4.45;;;;;;;-1.62;100.00;101335.06;5002268;28;20065;-84
2021/04/04 01:24:10;;;;;;;3.40;2.90;;;;;;;-1.69;100.00;101330.22;4997232;28;20061;-83
2021/04/04 01:27:45;;;;;;;3.80;3.50;;;;;;;-1.72;100.00;101324.72;4993721;28;20305;-82
2021/04/04 01:30:50;;;;;;;11.93;2.90;;;;;;;-1.76;100.00;101318.38;4993637;28;20065;-84
2021/04/04 01:33:56;;;;;;;3.75;2.30;;;;;;;-1.80;100.00;101321.00;4999411;28;20045;-83
2021/04/04 01:37:03;;;;;;;3.58;2.53;;;;;;;-1.81;100.00;101314.00;4999402;28;20061;-85
2021/04/04 01:40:12;;;;;;;2.50;2.33;;;;;;;-1.82;100.00;101312.38;4999578;28;20065;-84
2021/04/04 01:43:16;;;;;;;5.18;3.53;;;;;;;-1.81;100.00;101308.53;4999807;28;20056;-85
2021/04/04 01:46:21;;;;;;;9.80;3.45;;;;;;;-1.82;100.00;101306.94;4996850;28;20076;-82
2021/04/04 01:49:26;;;;;;;1.98;1.98;;;;;;;-1.85;100.00;101301.41;5000206;28;20072;-84
2021/04/04 01:52:30;;;;;;;4.53;4.13;;;;;;;-1.88;100.00;101300.16;5001908;28;20728;-86
2021/04/04 01:55:35;;;;;;;3.30;3.00;;;;;;;-1.90;100.00;101299.75;5000790;28;20315;-85
2021/04/04 01:58:41;;;;;;;2.40;2.30;;;;;;;-1.91;100.00;101308.28;5000594;28;20061;-86
2021/04/04 02:01:46;;;;;;;6.22;3.00;;;;;;;-1.97;100.00;101288.66;4986431;28;20600;-85
2021/04/04 02:04:51;;;;;;;2.38;2.28;;;;;;;-1.99;100.00;101296.41;4998021;28;20549;-82
2021/04/04 02:07:55;;;;;;;5.00;4.13;;;;;;;-2.01;100.00;101292.44;5017852;28;20069;-86
2021/04/04 02:11:01;;;;;;;3.30;3.00;;;;;;;-2.02;100.00;101291.69;5007114;28;20060;-82
2021/04/04 02:14:10;;;;;;;2.13;2.08;;;;;;;-2.06;100.00;101293.53;5008207;28;20077;-86
2021/04/04 02:17:15;;;;;;;2.42;2.22;;;;;;;-2.09;100.00;101283.31;5007197;28;20052;-83
2021/04/04 02:20:21;;;;;;;10.80;4.00;;;;;;;-2.12;100.00;101286.75;5013379;28;20061;-84
2021/04/04 02:23:27;;;;;;;13.90;4.00;;;;;;;-2.16;100.00;101274.97;5013664;28;20058;-82
2021/04/04 02:26:31;;;;;;;2.13;2.03;;;;;;;-2.22;100.00;101270.94;5013646;28;20057;-83
2021/04/04 02:29:35;;;;;;;3.15;2.85;;;;;;;-2.27;100.00;101273.94;5013708;28;20057;-84
2021/04/04 02:32:44;;;;;;;2.67;2.58;;;;;;;-2.32;100.00;101268.75;5014222;28;20064;-85
2021/04/04 02:35:52;;;;;;;2.88;2.75;;;;;;;-2.33;100.00;101270.69;5024693;28;20061;-85
2021/04/04 02:39:26;;;;;;;9.35;3.63;;;;;;;-2.32;100.00;101257.84;5014112;28;20125;-84
2021/04/04 02:42:32;;;;;;;3.00;2.83;;;;;;;-2.27;100.00;101260.28;5010937;28;20049;-86
2021/04/04 02:45:37;;;;;;;4.15;3.30;;;;;;;-2.28;100.00;101249.75;5014780;28;20545;-88
2021/04/04 02:48:44;;;;;;;2.13;2.13;;;;;;;-2.29;100.00;101254.41;5013286;28;20053;-82
2021/04/04 02:51:52;;;;;;;2.08;2.08;;;;;;;-2.27;100.00;101252.09;5026561;28;20059;-89
2021/04/04 02:54:57;;;;;;;2.13;2.08;;;;;;;-2.30;100.00;101258.28;5024333;28;20076;-86
2021/04/04 02:58:05;;;;;;;7.05;2.85;;;;;;;-2.35;100.00;101250.38;5011832;28;20159;-88
2021/04/04 03:01:10;;;;;;;3.35;3.25;;;;;;;-2.39;100.00;101244.03;5024065;28;20072;-86
2021/04/04 03:04:15;;;;;;;3.22;2.97;;;;;;;-2.45;100.00;101240.78;5023203;28;20081;-86
2021/04/04 03:07:23;;;;;;;1.67;1.67;;;;;;;-2.44;100.00;101238.84;5021917;28;20060;-87
2021/04/04 03:10:30;;;;;;;8.38;3.08;;;;;;;-2.46;100.00;101230.22;5030153;28;20540;-81
2021/04/04 03:13:34;;;;;;;2.33;2.13;;;;;;;-2.48;100.00;101227.88;5031511;28;20505;-82
2021/04/04 03:16:38;;;;;;;8.45;3.50;;;;;;;-2.52;100.00;101223.47;5032442;28;20068;-81
2021/04/04 03:19:43;;;;;;;5.55;3.03;;;;;;;-2.56;100.00;101212.50;5031392;28;20441;-82
2021/04/04 03:22:48;;;;;;;7.18;2.65;;;;;;;-2.58;100.00;101205.81;5023578;28;20056;-81
2021/04/04 03:25:54;;;;;;;6.60;3.80;;;;;;;-2.60;100.00;101199.91;5025372;28;20076;-81
2021/04/04 03:28:58;;;;;;;4.30;2.67;;;;;;;-2.57;100.00;101197.25;5019311;28;20064;-81
2021/04/04 03:32:02;;;;;;;3.40;2.85;;;;;;;-2.60;100.00;101199.91;5026550;28;20441;-82
2021/04/04 03:35:07;;;;;;;1.80;1.70;;;;;;;-2.57;100.00;101200.00;5026358;28;20068;-82
2021/04/04 03:38:14;;;;;;;3.15;2.40;;;;;;;-2.58;100.00;101203.09;5031560;28;20061;-82
2021/04/04 03:41:17;;;;;;;1.58;1.58;;;;;;;-2.61;100.00;101198.31;5030767;28;20060;-82
2021/04/04 03:44:24;;;;;;;7.13;3.45;;;;;;;-2.66;100.00;101198.59;5031914;28;20513;-81
2021/04/04 03:47:28;;;;;;;2.42;2.33;;;;;;;-2.67;100.00;101191.56;5031381;28;20068;-80
2021/04/04 03:50:37;;;;;;;2.42;2.35;;;;;;;-2.69;100.00;101191.13;5031692;28;20064;-81
2021/04/04 03:53:45;;;;;;;7.20;3.15;;;;;;;-2.74;100.00;101183.22;5030622;28;20430;-81
2021/04/04 03:56:50;;;;;;;3.20;2.17;;;;;;;-2.74;100.00;101184.00;5023901;28;20076;-81
2021/04/04 03:59:54;;;;;;;3.90;3.70;;;;;;;-2.75;100.00;101176.19;5031065;28;20080;-81
2021/04/04 04:02:58;;;;;;;2.38;2.22;;;;;;;-2.74;100.00;101177.75;5031280;28;20073;-80
2021/04/04 04:06:02;;;;;;;4.30;3.55;;;;;;;-2.74;100.00;101172.31;5031375;28;20525;-81
2021/04/04 04:09:12;;;;;;;7.78;4.18;;;;;;;-2.76;100.00;101169.94;5025183;28;20536;-81
2021/04/04 04:12:15;;;;;;;2.78;2.58;;;;;;;-2.80;100.00;101176.44;5027147;28;20080;-82
2021/04/04 04:15:20;;;;;;;27.40;3.83;;;;;;;-2.82;100.00;101165.13;5030004;28;20076;-81
2021/04/04 04:18:24;;;;;;;2.53;2.05;;;;;;;-2.86;100.00;101156.06;5030684;28;20057;-82
2021/04/04 04:21:28;;;;;;;1.65;1.65;;;;;;;-2.87;100.00;101163.44;5031276;28;20060;-82
2021/04/04 04:24:32;;;;;;;4.68;2.42;;;;;;;-2.86;100.00;101161.53;5029386;28;20513;-81
2021/04/04 04:27:37;;;;;;;4.68;2.40;;;;;;;-2.89;100.00;101154.03;5030100;28;20064;-82
2021/04/04 04:30:40;;;;;;;2.42;2.28;;;;;;;-2.91;100.00;101150.88;5029884;28;20556;-80
2021/04/04 04:33:47;;;;;;;3.88;2.70;;;;;;;-2.92;100.00;101155.53;5030860;28;20117;-81
2021/04/04 04:36:53;;;;;;;6.22;3.25;;;;;;;-2.89;100.00;101148.59;5029996;28;20129;-81
2021/04/04 04:39:58;;;;;;;17.05;4.97;;;;;;;-2.83;100.00;101147.16;5023967;28;20527;-81
2021/04/04 04:43:03;;;;;;;3.97;3.22;;;;;;;-2.67;100.00;101139.75;5024787;28;20049;-81
2021/04/04 04:46:06;;;;;;;4.13;2.67;;;;;;;-2.47;100.00;101144.13;5024753;28;20402;-81
2021/04/04 04:49:10;;;;;;;3.40;2.17;;;;;;;-2.37;100.00;101136.16;5025640;28;20073;-81
2021/04/04 04:52:14;;;;;;;3.97;2.17;;;;;;;-2.25;100.00;101139.91;5029658;28;20417;-82
2021/04/04 04:55:19;;;;;;;3.40;2.53;;;;;;;-2.12;100.00;101131.22;5026849;28;20164;-81
2021/04/04 04:58:23;;;;;;;2.25;2.10;;;;;;;-1.97;100.00;101135.81;5029853;28;20061;-82
2021/04/04 05:01:28;;;;;;;4.93;2.10;;;;;;;-1.84;100.00;101133.75;5030641;28;20422;-81
2021/04/04 05:04:33;;;;;;;6.63;3.08;;;;;;;-1.70;100.00;101134.78;5030733;28;20069;-80
2021/04/04 05:07:38;;;;;;;11.25;3.15;;;;;;;-1.55;100.00;101133.09;5029815;28;20076;-82
2021/04/04 05:10:43;;;;;;;2.55;1.98;;;;;;;-1.45;100.00;101129.00;5038958;28;20053;-82
2021/04/04 05:13:47;;;;;;;3.80;3.22;;;;;;;-1.38;100.00;101135.38;5042967;28;20065;-82
2021/04/04 05:16:53;;;;;;;2.45;2.35;;;;;;;-1.31;100.00;101129.25;5040987;28;20061;-82
2021/04/04 05:19:56;;;;;;;9.80;3.25;;;;;;;-1.24;100.00;101129.38;5030215;28;20072;-82
2021/04/04 05:23:01;;;;;;;2.92;2.83;;;;;;;-1.16;100.00;101129.13;5029913;28;20115;-82
2021/04/04 05:26:05;;;;;;;8.65;3.42;;;;;;;-1.11;100.00;101119.81;5030096;28;20536;-82
2021/04/04 05:29:11;;;;;;;6.65;1.45;;;;;;;-1.06;100.00;101114.81;5025685;28;20072;-82
2021/04/04 05:32:15;;;;;;;2.95;2.83;;;;;;;-1.01;100.00;101117.25;5026138;28;20061;-81
2021/04/04 05:35:21;;;;;;;6.18;2.25;;;;;;;-0.93;100.00;101123.63;5030370;28;20056;-82
2021/04/04 05:38:24;;;;;;;6.47;2.95;;;;;;;-0.87;100.00;101114.72;5029578;28;20053;-82
2021/04/04 05:41:33;;;;;;;28.38;5.43;;;;;;;-0.81;100.00;101116.00;5029694;28;20513;-82
2021/04/04 05:44:48;;;;;;;8.40;3.13;;;;;;;-0.73;100.00;101116.91;5029442;28;20061;-81
2021/04/04 05:48:17;;;;;;;7.40;3.33;;;;;;;-0.65;100.00;101113.09;5030073;28;20072;-82
2021/04/04 05:51:33;;;;;;;16.35;3.90;;;;;;;-0.58;100.00;101107.75;5030476;28;20540;-81
2021/04/04 05:54:49;;;;;;;6.10;5.60;;;;;;;-0.50;100.00;101108.63;5033715;28;20053;-82
2021/04/04 05:58:08;;;;;;;8.27;4.00;;;;;;;-0.42;100.00;101105.63;5033403;28;20080;-82
2021/04/04 06:01:33;;;;;;;12.07;3.08;;;;;;;-0.32;100.00;101104.97;5033153;28;20056;-82
2021/04/04 06:05:15;;;;;;;13.55;4.63;;;;;;;-0.19;100.00;101108.25;5032905;28;20057;-82
2021/04/04 06:08:37;;;;;;;;;;;;;;;-0.11;100.00;101107.97;5033354;28;20057;-82
2021/04/04 06:11:58;;;;;;;11.57;3.05;;;;;;;-0.01;100.00;101104.56;5032937;28;19920;-83
2021/04/04 06:15:45;;;;;;;9.02;2.50;;;;;;;0.07;100.00;101099.16;5033824;28;20057;-82
2021/04/04 06:19:25;;;;;;;10.50;4.07;;;;;;;0.15;100.00;101095.38;5031744;28;20406;-82
2021/04/04 06:22:43;;;;;;;6.82;3.00;;;;;;;0.22;100.00;101100.91;5031604;28;20529;-82
2021/04/04 06:26:08;;;;;;;15.55;3.42;;;;;;;0.29;100.00;101095.50;5033046;28;20108;-82
2021/04/04 06:29:27;;;;;;;25.13;3.08;;;;;;;0.35;100.00;101100.25;5033722;28;20064;-77
2021/04/04 06:32:45;;;;;;;4.18;3.78;;;;;;;0.43;100.00;101090.19;5023009;28;20064;-81
2021/04/04 06:36:01;;;;;;;7.38;3.95;;;;;;;0.51;100.00;101089.88;5033050;28;20061;-80
2021/04/04 06:39:07;;;;;;;4.72;2.85;;;;;;;0.63;100.00;101105.22;5029684;28;20091;-80
2021/04/04 06:42:17;;;;;;;14.38;3.63;;;;;;;0.71;100.00;101093.94;5030167;28;20057;-80
2021/04/04 06:45:40;;;;;;;7.63;4.65;;;;;;;0.82;100.00;101102.28;5032400;28;20064;-80
2021/04/04 06:49:10;;;;;;;19.38;4.32;;;;;;;0.95;100.00;101089.06;5031826;28;20717;-80
2021/04/04 06:52:43;;;;;;;13.80;4.72;;;;;;;1.05;100.00;101094.63;5031148;28;20061;-80
2021/04/04 06:56:17;;;;;;;39.75;5.85;;;;;;;1.19;100.00;101094.69;5031596;28;20061;-80
2021/04/04 06:59:31;;;;;;;4.55;2.97;;;;;;;1.36;100.00;101104.25;5031050;28;20060;-79
2021/04/04 07:03:04;;;;;;;5.50;2.65;;;;;;;1.48;100.00;101092.94;5032718;28;20060;-78
2021/04/04 07:06:19;;;;;;;;;;;;;;;1.66;100.00;101091.06;5028042;28;20064;-80
2021/04/04 07:09:35;;;;;;;21.70;4.03;;;;;;;1.84;100.00;101091.91;5029287;28;19925;-80
2021/04/04 07:12:53;;;;;;;6.13;2.47;;;;;;;2.09;100.00;101078.28;5032124;28;20072;-79
2021/04/04 07:16:44;;;;;;;35.28;4.40;;;;;;;2.32;100.00;101077.97;5026000;28;20124;-80
2021/04/04 07:19:57;;;;;;;15.45;2.97;;;;;;;2.51;100.00;101086.63;5031295;28;20125;-80
2021/04/04 07:23:31;;;;;;;5.68;2.35;;;;;;;2.67;100.00;101072.47;5026266;28;20064;-80
2021/04/04 07:26:41;;;;;;;8.82;3.03;;;;;;;2.85;100.00;101073.28;5031454;28;20060;-80
2021/04/04 07:30:28;;;;;;;6.47;2.63;;;;;;;3.00;100.00;101081.16;5023495;28;20172;-79
2021/04/04 07:33:53;;;;;;;3.22;2.15;;;;;;;3.12;100.00;101081.91;5011336;28;20060;-80
2021/04/04 07:37:08;;;;;;;10.75;3.65;;;;;;;3.24;100.00;101078.75;5012250;28;20085;-81
2021/04/04 07:40:18;;;;;;;4.60;2.13;;;;;;;3.38;100.00;101076.75;5014796;28;20069;-81
2021/04/04 07:43:31;;;;;;;9.13;3.25;;;;;;;3.52;100.00;101075.94;5016872;28;20061;-82
2021/04/04 07:47:10;;;;;;;10.13;2.33;;;;;;;3.61;100.00;101081.81;5011707;28;20495;-82
2021/04/04 07:50:46;;;;;;;7.47;2.88;;;;;;;3.68;100.00;101068.03;5011917;28;20068;-80
2021/04/04 07:54:14;;;;;;;4.68;2.15;;;;;;;3.75;100.00;101062.47;5011102;28;20068;-83
2021/04/04 07:57:42;;;;;;;11.18;2.38;;;;;;;3.86;100.00;101068.72;5007694;28;20057;-83
2021/04/04 08:00:58;;;;;;;5.78;2.15;;;;;;;3.98;100.00;101057.25;5004000;28;20061;-83
2021/04/04 08:04:12;;;;;;;2.33;1.83;;;;;;;4.14;100.00;101054.00;5006162;28;20065;-82
2021/04/04 08:07:22;;;;;;;5.97;3.00;;;;;;;4.24;100.00;101048.44;5017478;28;20061;-82
2021/04/04 08:10:34;;;;;;;5.85;1.90;;;;;;;4.34;100.00;101044.81;5021953;28;20160;-83
2021/04/04 08:13:47;;;;;;;7.25;2.58;;;;;;;4.42;100.00;101040.81;5013584;28;20114;-85
2021/04/04 08:16:58;;;;;;;3.97;2.45;;;;;;;4.55;100.00;101030.09;5016903;28;20064;-84
2021/04/04 08:20:25;;;;;;;2.60;1.63;;;;;;;4.69;100.00;101029.19;5016830;28;20068;-83
2021/04/04 08:23:43;;;;;;;7.15;2.72;;;;;;;4.71;100.00;101030.38;5012551;28;20065;-86
2021/04/04 08:26:53;;;;;;;8.50;2.83;;;;;;;4.77;100.00;101036.22;5019580;28;20076;-86
2021/04/04 08:30:23;;;;;;;15.05;3.53;;;;;;;4.87;100.00;101025.09;5026112;28;20061;-81
2021/04/04 08:33:34;;;;;;;12.77;3.20;;;;;;;5.02;100.00;101025.75;5011032;28;20077;-86
2021/04/04 08:36:51;;;;;;;10.02;4.68;;;;;;;5.09;100.00;101020.94;5022716;28;20057;-84
2021/04/04 08:39:58;;;;;;;17.63;4.07;;;;;;;5.22;100.00;101007.38;5017439;28;20061;-81
2021/04/04 08:43:03;;;;;;;7.78;2.58;;;;;;;5.32;100.00;101014.78;5022958;28;20052;-82
2021/04/04 08:46:19;;;;;;;22.45;3.83;;;;;;;5.42;100.00;101011.09;5015612;28;20061;-79
2021/04/04 08:49:26;;;;;;;20.10;4.15;;;;;;;5.57;100.00;101008.94;5011713;28;20145;-79
2021/04/04 08:52:48;;;;;;;11.45;3.38;;;;;;;5.73;100.00;101009.94;5010352;28;20418;-78
2021/04/04 08:55:53;;;;;;;8.30;3.90;;;;;;;5.94;100.00;101008.91;5025909;28;20069;-78
2021/04/04 08:59:00;;;;;;;22.95;3.65;;;;;;;6.09;100.00;101011.06;5016597;28;20056;-79
2021/04/04 09:02:06;;;;;;;11.05;3.08;;;;;;;6.16;100.00;101015.69;5024428;28;20060;-78
2021/04/04 09:05:11;;;;;;;8.80;2.88;;;;;;;6.17;100.00;101000.69;5023066;28;20073;-77
2021/04/04 09:08:17;;;;;;;21.15;4.00;;;;;;;6.25;100.00;101002.13;5013085;28;20065;-82
2021/04/04 09:11:21;;;;;;;4.90;2.63;;;;;;;6.34;100.00;100987.78;5020528;28;20065;-81
2021/04/04 09:14:32;;;;;;;15.02;5.18;;;;;;;6.49;100.00;100991.88;5010672;28;20750;-79
2021/04/04 09:17:36;;;;;;;18.58;3.60;;;;;;;6.68;100.00;100977.31;5010136;28;20521;-80
2021/04/04 09:20:41;;;;;;;8.55;3.35;;;;;;;6.85;100.00;100967.91;5009026;28;20426;-79
2021/04/04 09:23:48;;;;;;;18.13;3.50;;;;;;;6.97;100.00;100970.09;5028469;28;20068;-80
2021/04/04 09:26:54;;;;;;;18.67;3.75;;;;;;;6.85;100.00;100967.91;5026271;28;20061;-80
2021/04/04 09:30:00;;;;;;;7.32;2.67;;;;;;;7.19;100.00;100960.16;5035868;28;20129;-79
2021/04/04 09:33:08;;;;;;;15.45;3.72;;;;;;;7.36;100.00;100955.47;5009281;28;20414;-80
2021/04/04 09:36:11;;;;;;;9.77;2.22;;;;;;;7.44;100.00;100951.34;5021502;28;20066;-80
2021/04/04 09:39:29;;;;;;;6.75;2.95;;;;;;;7.56;100.00;100945.94;5014084;28;20069;-80
2021/04/04 09:42:33;;;;;;;7.68;1.45;;;;;;;7.79;100.00;100952.59;5021113;28;20049;-80
2021/04/04 09:45:38;;;;;;;11.00;3.00;;;;;;;7.73;100.00;100946.00;5033070;28;20497;-80
2021/04/04 09:48:41;;;;;;;4.22;1.83;;;;;;;7.69;100.00;100939.75;5033991;28;20077;-81
2021/04/04 09:51:48;;;;;;;14.85;2.00;;;;;;;7.74;100.00;100922.59;5035129;28;20433;-79
2021/04/04 09:54:59;;;;;;;3.50;1.88;;;;;;;7.73;100.00;100915.50;5029219;28;20057;-81
2021/04/04 09:58:03;;;;;;;2.45;0.70;;;;;;;7.58;100.00;100915.78;5029424;28;20056;-80
2021/04/04 10:01:24;;;;;;;10.23;2.65;;;;;;;7.64;100.00;100935.47;5011171;28;20494;-82
2021/04/04 10:04:42;;;;;;;7.35;1.95;;;;;;;7.86;100.00;100927.47;5019070;28;20060;-79
2021/04/04 10:07:46;;;;;;;10.27;2.00;;;;;;;8.05;100.00;100907.22;5025584;28;20073;-80
2021/04/04 10:10:57;;;;;;;2.88;1.92;;;;;;;8.24;100.00;100907.13;5031951;28;20049;-81
2021/04/04 10:14:11;;;;;;;6.15;2.28;;;;;;;8.38;100.00;100917.88;5030683;28;20045;-80
2021/04/04 10:17:15;;;;;;;2.45;1.45;;;;;;;8.57;100.00;100915.47;5029196;28;20505;-80
2021/04/04 10:20:41;;;;;;;7.43;2.10;;;;;;;8.71;100.00;100907.53;5028548;28;20060;-79
2021/04/04 10:23:45;;;;;;;2.80;1.33;;;;;;;8.87;100.00;100888.06;5021414;28;20057;-80
2021/04/04 10:27:16;;;;;;;15.52;1.85;;;;;;;9.04;100.00;100886.78;5026806;28;20061;-78
2021/04/04 10:30:24;;;;;;;5.70;1.55;;;;;;;9.23;100.00;100876.69;5023254;28;20192;-78
2021/04/04 10:33:27;;;;;;;4.68;1.15;;;;;;;9.36;100.00;100865.59;5026333;28;20053;-80
2021/04/04 10:36:31;;;;;;;4.70;1.45;;;;;;;9.49;100.00;100850.50;5022602;28;20068;-80
2021/04/04 10:39:36;;;;;;;8.60;3.30;;;;;;;9.71;100.00;100862.53;5028951;28;20056;-80
2021/04/04 10:42:40;;;;;;;9.55;1.80;;;;;;;9.80;100.00;100856.28;5024955;28;20061;-80
2021/04/04 10:45:58;;;;;;;2.65;1.60;;;;;;;9.84;100.00;100846.59;5031052;28;20076;-80
2021/04/04 10:49:04;;;;;;;4.68;2.03;;;;;;;9.82;100.00;100839.94;5016792;28;20065;-81
2021/04/04 10:52:08;;;;;;;10.63;1.63;;;;;;;9.78;100.00;100817.81;5020522;28;20057;-79
2021/04/04 10:55:13;;;;;;;5.32;2.30;;;;;;;9.96;100.00;100822.00;5009681;28;20552;-79
2021/04/04 10:58:19;;;;;;;3.85;1.08;;;;;;;10.09;100.00;100817.94;5021588;28;20060;-81
2021/04/04 11:01:23;;;;;;;7.35;1.17;;;;;;;10.15;100.00;100816.22;5012103;28;20065;-80
2021/04/04 11:04:33;;;;;;;4.05;1.10;;;;;;;10.19;100.00;100816.88;4993038;28;20062;-79
2021/04/04 11:07:36;;;;;;;6.10;0.88;;;;;;;10.26;100.00;100810.28;4992610;28;20423;-80
2021/04/04 11:10:40;;;;;;;4.10;0.73;;;;;;;10.30;100.00;100797.00;5014337;28;20061;-80
2021/04/04 11:13:49;;;;;;;4.88;1.55;;;;;;;10.38;100.00;100801.09;5015777;28;20430;-80
2021/04/04 11:16:58;;;;;;;2.70;1.38;;;;;;;10.46;100.00;100794.81;5022332;28;20049;-82
2021/04/04 11:20:09;;;;;;;3.83;1.75;;;;;;;10.49;100.00;100780.00;5018850;28;20057;-81
2021/04/04 11:23:17;;;;;;;6.43;1.15;;;;;;;10.59;100.00;100787.19;5020348;28;20053;-81
2021/04/04 11:26:31;;;;;;;2.45;1.20;;;;;;;10.66;100.00;100786.94;5027138;28;20402;-81
2021/04/04 11:29:44;;;;;;;4.47;1.10;;;;;;;10.66;100.00;100764.66;5037926;28;20067;-81
2021/04/04 11:33:08;;;;;;;;;;;;;;;10.58;100.00;100763.38;5018368;28;20072;-80
2021/04/04 11:36:12;;;;;;;2.22;1.50;;;;;;;10.72;100.00;100761.28;5013767;28;19914;-80
2021/04/04 11:39:16;;;;;;;6.65;1.20;;;;;;;10.82;100.00;100737.81;5014528;28;20056;-80
2021/04/04 11:42:19;;;;;;;3.03;1.17;;;;;;;10.99;100.00;100736.34;5013935;28;20053;-81
2021/04/04 11:45:37;;;;;;;2.85;1.00;;;;;;;11.16;100.00;100729.31;5014292;28;20056;-83
2021/04/04 11:48:41;;;;;;;2.33;1.27;;;;;;;11.18;100.00;100712.91;5013756;28;20442;-82
2021/04/04 11:51:44;;;;;;;9.23;1.40;;;;;;;11.26;100.00;100714.94;5014354;28;20053;-83
2021/04/04 11:54:50;;;;;;;10.75;1.17;;;;;;;11.38;100.00;100708.50;5014060;28;20057;-83
2021/04/04 11:57:54;;;;;;;2.15;0.98;;;;;;;11.56;100.00;100707.78;5014121;28;20038;-81
2021/04/04 12:00:59;;;;;;;4.28;1.23;;;;;;;11.74;100.00;100707.81;5013211;28;20497;-82
2021/04/04 12:04:29;;;;;;;5.63;1.02;;;;;;;11.79;100.00;100706.44;5014320;28;20053;-82
2021/04/04 12:07:41;;;;;;;3.05;1.17;;;;;;;11.90;100.00;100688.00;5013988;28;20053;-81
2021/04/04 12:10:45;;;;;;;3.58;1.45;;;;;;;11.98;100.00;100694.03;5013342;28;20045;-81
2021/04/04 12:14:01;;;;;;;1.92;1.05;;;;;;;12.02;100.00;100694.66;5013264;28;20049;-80
2021/04/04 12:17:04;;;;;;;3.38;1.45;;;;;;;12.12;100.00;100699.78;5013241;28;20049;-80
2021/04/04 12:20:09;;;;;;;4.65;1.27;;;;;;;12.10;100.00;100702.28;5013312;28;20386;-81
2021/04/04 12:23:14;;;;;;;1.80;1.15;;;;;;;12.17;100.00;100701.94;5013716;28;20489;-81
2021/04/04 12:26:18;;;;;;;9.05;1.10;;;;;;;12.37;100.00;100701.47;5018718;28;20044;-82
2021/04/04 12:29:21;;;;;;;2.45;1.20;;;;;;;12.34;100.00;100670.91;5027720;28;20064;-81
2021/04/04 12:32:33;;;;;;;7.82;2.15;;;;;;;12.29;100.00;100663.94;5031894;28;20048;-80
2021/04/04 12:35:53;;;;;;;3.67;1.08;;;;;;;12.37;100.00;100653.97;5031800;28;20069;-80
2021/04/04 12:39:00;;;;;;;5.57;0.93;;;;;;;12.50;100.00;100642.63;5031469;28;20096;-81
2021/04/04 12:42:15;;;;;;;5.38;0.90;;;;;;;12.56;100.00;100649.16;5031805;28;20051;-81
2021/04/04 12:45:19;;;;;;;3.65;1.30;;;;;;;12.67;100.00;100638.22;5031566;28;20060;-81
2021/04/04 12:48:24;;;;;;;5.63;0.88;;;;;;;12.94;100.00;100635.34;5032886;28;20076;-80
2021/04/04 12:51:27;;;;;;;4.82;1.92;;;;;;;12.97;100.00;100623.22;5032757;28;20052;-78
2021/04/04 12:54:31;;;;;;;4.50;1.23;;;;;;;12.90;100.00;100612.38;5032762;28;20049;-78
2021/04/04 12:57:35;;;;;;;8.18;1.30;;;;;;;12.89;100.00;100606.00;5033087;28;20060;-79
2021/04/04 13:00:41;;;;;;;2.70;1.35;;;;;;;13.00;100.00;100611.06;5032163;28;20053;-78
2021/04/04 13:03:45;;;;;;;5.43;1.98;;;;;;;13.03;100.00;100618.53;5032797;28;20064;-79
2021/04/04 13:06:49;;;;;;;7.15;1.83;;;;;;;13.10;100.00;100603.44;5032431;28;20056;-80
2021/04/04 13:09:53;;;;;;;14.68;1.83;;;;;;;13.11;100.00;100605.75;5033075;28;20481;-79
2021/04/04 13:12:56;;;;;;;5.10;1.40;;;;;;;13.04;100.00;100611.66;5033324;28;20389;-79
2021/04/04 13:16:02;;;;;;;3.17;1.10;;;;;;;12.94;100.00;100599.78;5033002;28;20049;-78
2021/04/04 13:19:06;;;;;;;7.53;1.83;;;;;;;12.90;100.00;100595.59;5033117;28;20048;-79
2021/04/04 13:22:10;;;;;;;5.07;0.93;;;;;;;12.81;100.00;100590.03;5033442;28;20053;-78
2021/04/04 13:25:14;;;;;;;4.32;1.30;;;;;;;12.81;100.00;100578.88;5032958;28;20041;-77
2021/04/04 13:28:32;;;;;;;8.48;1.92;;;;;;;12.93;100.00;100566.69;5018257;28;20069;-78
2021/04/04 13:45:43;;;;;;;8.77;0.65;;;;;;;12.95;100.00;100542.59;5014559;28;20386;-77
2021/04/04 13:48:54;;;;;;;7.63;1.45;;;;;;;13.01;100.00;100533.56;5030712;28;20053;-80
2021/04/04 13:52:15;;;;;;;3.75;1.63;;;;;;;13.05;100.00;100523.78;5032171;28;20052;-77
2021/04/04 13:55:28;;;;;;;18.45;2.08;;;;;;;12.98;100.00;100523.31;5032561;28;20061;-78
2021/04/04 13:58:37;;;;;;;2.67;0.85;;;;;;;13.16;100.00;100524.00;5031276;28;20393;-77
2021/04/04 14:01:43;;;;;;;6.10;2.33;;;;;;;13.18;100.00;100507.53;5033786;28;20068;-79
2021/04/04 14:04:47;;;;;;;3.53;0.82;;;;;;;13.19;100.00;100500.66;5032840;28;20048;-76
2021/04/04 14:07:51;;;;;;;3.92;1.02;;;;;;;13.16;100.00;100490.44;5031328;28;20044;-76
2021/04/04 14:10:55;;;;;;;5.10;1.98;;;;;;;13.15;100.00;100483.31;5031323;28;20489;-76
2021/04/04 14:13:58;;;;;;;5.88;1.55;;;;;;;13.28;100.00;100483.81;5034798;28;20052;-78
2021/04/04 14:17:04;;;;;;;3.42;1.58;;;;;;;13.44;100.00;100483.38;5034056;28;20493;-78
2021/04/04 14:20:08;;;;;;;3.83;0.98;;;;;;;13.43;100.00;100467.06;5034668;28;20048;-78
2021/04/04 14:23:12;;;;;;;3.05;0.80;;;;;;;13.36;100.00;100468.19;5035270;28;20596;-80
2021/04/04 14:26:16;;;;;;;3.88;1.65;;;;;;;13.45;100.00;100468.13;5034533;28;20045;-79
2021/04/04 14:29:19;;;;;;;4.68;1.73;;;;;;;13.41;100.00;100461.94;5020954;28;20481;-79
2021/04/04 14:32:23;;;;;;;3.63;1.45;;;;;;;13.40;100.00;100462.44;5036340;28;20068;-79
2021/04/04 14:35:27;;;;;;;2.67;1.05;;;;;;;13.36;100.00;100459.81;5035277;28;20405;-80
2021/04/04 14:38:30;;;;;;;2.28;0.70;;;;;;;13.30;100.00;100455.34;5030707;28;20120;-81
2021/04/04 14:41:35;;;;;;;3.55;1.95;;;;;;;13.32;100.00;100445.22;5018312;28;20061;-79
2021/04/04 14:44:39;;;;;;;3.30;1.73;;;;;;;13.24;100.00;100451.69;5017078;28;20048;-79
2021/04/04 14:47:43;;;;;;;3.00;1.50;;;;;;;13.24;100.00;100435.69;5034312;28;20061;-79